• Join FlightAware (Why Join?)
  • Login
  • US Flag 
06:51PM EST


 

Airport Tracker/Info


-or-


 

Live Flight TrackerFlight Track Log ✈ SWA2975 ✈ 27-Jun-2013 ✈ KDEN - KSLC

Flight Track Log - Related Links

Times and Time Zones

All times are in EDT time to prevent confusion due to time zone crossing. See the SWA2975 flight status page for this flight to view local times or setup timezone preferences in your user account.

Time Position Orientation Groundspeed Altitude Reporting Facility
EDT Latitude Longitude Course Direction KTS MPH feet Rate Location/Type
03:57PM 39.8650 -104.6810 255° West 15 17  Level FlightAware
03:57PM 39.8640 -104.6830 237° Southwest 34 39 2,650 Level FlightAware
03:58PM 39.8640 -104.6860 270° West 18 21 3,383 Level FlightAware
03:58PM 39.8640 -104.6870 270° West 19 22 4,543 Level FlightAware
03:58PM 39.8650 -104.6870 360° North 26 30 5,483 Level FlightAware
03:59PM 39.8910 -104.6870 360° North 180 207 5,300 5,719 Climbing FlightAware
03:59PM 39.9060 -104.6890 354° North 185 213 6,100 2,100 Climbing FlightAware
03:59PM 39.9240 -104.6970 341° North 206 237 6,700 2,067 Climbing FlightAware
04:02PM 39.8799 -104.9880 276° West  Level FlightAware Approximate
04:03PM 39.8907 -105.1290 276° West  Level FlightAware Approximate
04:04PM 39.9000 -105.2700 270° West  Level FlightAware Approximate
04:04PM 39.8710 -105.0640 270° West 342 394 15,400  Level FlightAware
04:04PM 39.8910 -105.1770 283° West 351 404 17,900 2,640 Climbing FlightAware
04:06PM 39.9280 -105.4050 282° West 373 429 22,000 2,250 Climbing FlightAware
04:07PM 39.9350 -105.5050 275° West 380 437 23,600 1,977 Climbing FlightAware
04:08PM 39.9410 -105.6070 274° West 390 449 24,900 1,326 Climbing FlightAware
04:08PM 39.9480 -105.7080 275° West 417 480 25,500 1,200 Climbing FlightAware
04:09PM 39.9540 -105.8050 275° West 426 490 26,500 1,482 Climbing FlightAware
04:10PM 39.9610 -105.9230 274° West 435 501 27,600 1,467 Climbing FlightAware
04:10PM 39.9680 -106.0380 275° West 443 510 28,700 1,624 Climbing FlightAware
04:11PM 39.9750 -106.1500 275° West 443 510 29,900 1,756 Climbing FlightAware
04:12PM 39.9810 -106.2570 274° West 442 509 31,100 1,643 Climbing FlightAware
04:12PM 39.9880 -106.3670 275° West 442 509 32,200 1,465 Climbing FlightAware
04:13PM 39.9940 -106.4830 274° West 443 510 33,200 1,350 Climbing FlightAware
04:14PM 40.0000 -106.5860 274° West 444 511 34,000 640 Climbing FlightAware
04:14PM 40.0060 -106.6830 275° West 444 511 34,000  Level FlightAware
04:15PM 40.0130 -106.8180 274° West 445 512 34,000  Level FlightAware
04:16PM 40.0190 -106.9220 274° West 444 511 34,000  Level FlightAware
04:17PM 40.0250 -107.0430 274° West 444 511 34,000  Level FlightAware
04:17PM 40.0310 -107.1550 274° West 446 513 34,000  Level FlightAware
04:18PM 40.0390 -107.3180 274° West 446 513 34,000  Level FlightAware
04:19PM 40.0440 -107.4320 273° West 448 516 34,000  Level FlightAware
04:21PM 40.0550 -107.6580 274° West 450 518 34,000  Level FlightAware
04:21PM 40.0610 -107.7860 274° West 451 519 34,000  Level FlightAware
04:22PM 40.0660 -107.8920 274° West 451 519 34,000  Level FlightAware
04:23PM 40.0710 -108.0150 273° West 450 518 34,000  Level FlightAware
04:23PM 40.0760 -108.1220 274° West 448 516 34,000  Level FlightAware
04:24PM 40.0820 -108.2420 274° West 447 514 34,000  Level FlightAware
04:25PM 40.0860 -108.3410 273° West 447 514 34,000  Level FlightAware
04:25PM 40.0910 -108.4590 273° West 446 513 34,000  Level FlightAware
04:26PM 40.0960 -108.5720 273° West 446 513 34,000  Level FlightAware
04:27PM 40.1010 -108.6960 273° West 446 513 34,000  Level FlightAware
04:28PM 40.1050 -108.7960 273° West 445 512 34,000  Level FlightAware
04:28PM 40.1100 -108.9230 273° West 445 512 34,000  Level FlightAware
04:29PM 40.1140 -109.0280 273° West 445 512 34,000  Level FlightAware
04:29PM 40.1170 -109.1090 273° West 445 512 34,000  Level FlightAware
04:30PM 40.1200 -109.2150 272° West 446 513 34,000  Level FlightAware
04:31PM 40.1240 -109.3220 273° West 447 514 34,000  Level FlightAware
04:32PM 40.1290 -109.4740 273° West 447 514 34,000  Level FlightAware
04:32PM 40.1330 -109.5830 273° West 447 514 34,000 -353 Level FlightAware
04:33PM 40.1370 -109.7130 272° West 447 514 33,500 -828 Descending FlightAware
04:34PM 40.1400 -109.8250 272° West 445 512 32,800 -951 Descending FlightAware
04:35PM 40.1440 -109.9310 273° West 447 514 32,200 -935 Descending FlightAware
04:35PM 40.1460 -110.0300 272° West 446 513 31,600 -1,000 Descending FlightAware
04:36PM 40.1490 -110.1510 272° West 438 504 30,800 -1,043 Descending FlightAware
04:37PM 40.1480 -110.2760 269° West 432 497 30,000 -565 Descending FlightAware
04:37PM 40.1470 -110.3800 269° West 431 496 30,000  Level FlightAware
04:38PM 40.1460 -110.4970 269° West 431 496 30,000 -1,302 Level FlightAware
04:39PM 40.1460 -110.4970 269° West 424 488 27,700 -2,273 Descending FlightAware
04:40PM 40.1420 -110.8400 269° West 404 465 25,000 -1,361 Descending FlightAware
04:41PM 40.1410 -110.9270 269° West 404 465 25,000  Level FlightAware
04:42PM 40.1400 -111.0220 269° West 404 465 25,000  Level FlightAware
04:43PM 40.1380 -111.1060 268° West 404 465 25,000  Level FlightAware
04:43PM 40.1380 -111.1550 270° West 404 465 25,000  Level FlightAware
04:44PM 40.1360 -111.2550 269° West 404 465 25,000  Level FlightAware
04:44PM 40.1350 -111.3300 269° West 404 465 25,000 -2,798 Level FlightAware
04:48PM 40.2340 -111.7570 287° West 318 366 13,200 -2,642 Descending FlightAware
04:49PM 40.2790 -111.8170 315° West 318 366 13,200 -1,667 Level FlightAware
04:49PM 40.3430 -111.8840 321° Northwest 305 351 10,700 -2,022 Descending FlightAware
04:50PM 40.4000 -111.9290 329° Northwest 272 313 10,200 -774 Descending FlightAware
04:52PM 40.5250 -111.9440 355° North 252 290 8,700 -923 Descending FlightAware
04:52PM 40.5550 -111.9480 354° North 249 287 8,200 -1,116 Descending FlightAware
04:53PM 40.5750 -111.9500 356° North 251 289 7,900 -1,067 Descending FlightAware
04:53PM 40.6050 -111.9540 354° North 240 276 7,400 -1,375 Descending FlightAware
04:54PM 40.6280 -111.9560 356° North 230 265 6,800 -1,592 Descending FlightAware
04:54PM 40.6570 -111.9600 354° North 216 249 6,100 -960 Descending FlightAware
04:54PM 40.6770 -111.9620 356° North 186 214 6,000 -585 Descending FlightAware
04:55PM 40.6920 -111.9640 354° North 171 197 5,700 -1,135 Descending FlightAware
04:55PM 40.7060 -111.9650 357° North 163 188 5,300 -1,031 Descending FlightAware
04:56PM 40.7400 -111.9690 355° North 161 185 4,600 -822 Descending FlightAware
04:56PM 40.7610 -111.9720 354° North 161 185 4,300 -455 Descending FlightAware
04:57PM 40.7850 -111.9740 356° North 161 185 4,100 -308 Descending FlightAware
05:05PM 40.7833 -111.9667 North  Level FlightAware Approximate